sensor_id;sensor_type;location;lat;lon;timestamp;temperature;humidity
36654;DHT22;22650;49.350;20.898;2024-01-07T00:01:09;2.40;99.90
36654;DHT22;22650;49.350;20.898;2024-01-07T00:03:43;2.40;99.90
36654;DHT22;22650;49.350;20.898;2024-01-07T00:06:17;2.30;99.90
36654;DHT22;22650;49.350;20.898;2024-01-07T00:08:51;2.30;99.90
36654;DHT22;22650;49.350;20.898;2024-01-07T00:11:24;2.40;99.90
36654;DHT22;22650;49.350;20.898;2024-01-07T00:13:58;2.40;99.90
36654;DHT22;22650;49.350;20.898;2024-01-07T00:16:33;2.30;99.90
36654;DHT22;22650;49.350;20.898;2024-01-07T00:19:07;2.40;99.90
36654;DHT22;22650;49.350;20.898;2024-01-07T00:21:41;2.30;99.90
36654;DHT22;22650;49.350;20.898;2024-01-07T00:24:14;2.30;99.90
36654;DHT22;22650;49.350;20.898;2024-01-07T00:26:48;2.30;99.90
36654;DHT22;22650;49.350;20.898;2024-01-07T00:29:21;2.20;99.90
36654;DHT22;22650;49.350;20.898;2024-01-07T00:31:56;2.30;99.90
36654;DHT22;22650;49.350;20.898;2024-01-07T00:34:31;2.30;99.90
36654;DHT22;22650;49.350;20.898;2024-01-07T00:37:05;2.30;99.90
36654;DHT22;22650;49.350;20.898;2024-01-07T00:39:38;2.20;99.90
36654;DHT22;22650;49.350;20.898;2024-01-07T00:42:15;2.20;99.90
36654;DHT22;22650;49.350;20.898;2024-01-07T00:44:48;2.20;99.90
36654;DHT22;22650;49.350;20.898;2024-01-07T00:47:23;2.20;99.90
36654;DHT22;22650;49.350;20.898;2024-01-07T00:49:57;2.10;99.90
36654;DHT22;22650;49.350;20.898;2024-01-07T00:52:31;2.20;99.90
36654;DHT22;22650;49.350;20.898;2024-01-07T00:55:05;2.20;99.90
36654;DHT22;22650;49.350;20.898;2024-01-07T00:57:39;2.20;99.90
36654;DHT22;22650;49.350;20.898;2024-01-07T01:00:14;2.20;99.90
36654;DHT22;22650;49.350;20.898;2024-01-07T01:02:49;2.20;99.90
36654;DHT22;22650;49.350;20.898;2024-01-07T01:05:23;2.10;99.90
36654;DHT22;22650;49.350;20.898;2024-01-07T01:07:56;2.10;99.90
36654;DHT22;22650;49.350;20.898;2024-01-07T01:10:30;2.10;99.90
36654;DHT22;22650;49.350;20.898;2024-01-07T01:13:04;2.10;99.90
36654;DHT22;22650;49.350;20.898;2024-01-07T01:15:38;2.10;99.90
36654;DHT22;22650;49.350;20.898;2024-01-07T01:18:13;2.10;99.90
36654;DHT22;22650;49.350;20.898;2024-01-07T01:20:47;2.10;99.90
36654;DHT22;22650;49.350;20.898;2024-01-07T01:23:20;2.10;99.90
36654;DHT22;22650;49.350;20.898;2024-01-07T01:25:54;2.00;99.90
36654;DHT22;22650;49.350;20.898;2024-01-07T01:28:27;2.00;99.90
36654;DHT22;22650;49.350;20.898;2024-01-07T01:31:01;2.00;99.90
36654;DHT22;22650;49.350;20.898;2024-01-07T01:33:36;2.00;99.90
36654;DHT22;22650;49.350;20.898;2024-01-07T01:36:10;2.00;99.90
36654;DHT22;22650;49.350;20.898;2024-01-07T01:38:44;1.90;99.90
36654;DHT22;22650;49.350;20.898;2024-01-07T01:41:17;1.90;99.90
36654;DHT22;22650;49.350;20.898;2024-01-07T01:43:51;1.90;99.90
36654;DHT22;22650;49.350;20.898;2024-01-07T01:46:25;1.90;99.90
36654;DHT22;22650;49.350;20.898;2024-01-07T01:49:00;1.80;99.90
36654;DHT22;22650;49.350;20.898;2024-01-07T01:51:35;1.80;99.90
36654;DHT22;22650;49.350;20.898;2024-01-07T01:54:09;1.80;99.90
36654;DHT22;22650;49.350;20.898;2024-01-07T01:56:43;1.80;99.90
36654;DHT22;22650;49.350;20.898;2024-01-07T01:59:17;1.80;99.90
36654;DHT22;22650;49.350;20.898;2024-01-07T02:01:52;1.80;99.90
36654;DHT22;22650;49.350;20.898;2024-01-07T02:04:27;1.80;99.90
36654;DHT22;22650;49.350;20.898;2024-01-07T02:07:01;1.70;99.90
36654;DHT22;22650;49.350;20.898;2024-01-07T02:09:34;1.70;99.90
36654;DHT22;22650;49.350;20.898;2024-01-07T02:12:08;1.70;99.90
36654;DHT22;22650;49.350;20.898;2024-01-07T02:14:44;1.70;99.90
36654;DHT22;22650;49.350;20.898;2024-01-07T02:17:20;1.70;99.90
36654;DHT22;22650;49.350;20.898;2024-01-07T02:19:55;1.70;99.90
36654;DHT22;22650;49.350;20.898;2024-01-07T02:22:29;1.70;99.90
36654;DHT22;22650;49.350;20.898;2024-01-07T02:25:05;1.70;99.90
36654;DHT22;22650;49.350;20.898;2024-01-07T02:27:39;1.70;99.90
36654;DHT22;22650;49.350;20.898;2024-01-07T02:30:13;1.70;99.90
36654;DHT22;22650;49.350;20.898;2024-01-07T02:32:46;1.70;99.90
36654;DHT22;22650;49.350;20.898;2024-01-07T02:35:20;1.60;99.90
36654;DHT22;22650;49.350;20.898;2024-01-07T02:37:54;1.60;99.90
36654;DHT22;22650;49.350;20.898;2024-01-07T02:40:29;1.60;99.90
36654;DHT22;22650;49.350;20.898;2024-01-07T02:43:02;1.60;99.90
36654;DHT22;22650;49.350;20.898;2024-01-07T02:45:36;1.70;99.90
36654;DHT22;22650;49.350;20.898;2024-01-07T02:48:10;1.60;99.90
36654;DHT22;22650;49.350;20.898;2024-01-07T02:50:43;1.60;99.90
36654;DHT22;22650;49.350;20.898;2024-01-07T02:53:17;1.60;99.90
36654;DHT22;22650;49.350;20.898;2024-01-07T02:55:52;1.60;99.90
36654;DHT22;22650;49.350;20.898;2024-01-07T02:58:26;1.60;99.90
36654;DHT22;22650;49.350;20.898;2024-01-07T03:00:59;1.50;99.90
36654;DHT22;22650;49.350;20.898;2024-01-07T03:03:33;1.50;99.90
36654;DHT22;22650;49.350;20.898;2024-01-07T03:06:06;1.50;99.90
36654;DHT22;22650;49.350;20.898;2024-01-07T03:08:41;1.40;99.90
36654;DHT22;22650;49.350;20.898;2024-01-07T03:11:16;1.30;99.90
36654;DHT22;22650;49.350;20.898;2024-01-07T03:13:49;1.30;99.90
36654;DHT22;22650;49.350;20.898;2024-01-07T03:16:24;1.40;99.90
36654;DHT22;22650;49.350;20.898;2024-01-07T03:18:58;1.30;99.90
36654;DHT22;22650;49.350;20.898;2024-01-07T03:21:32;1.20;99.90
36654;DHT22;22650;49.350;20.898;2024-01-07T03:24:06;1.20;99.90
36654;DHT22;22650;49.350;20.898;2024-01-07T03:26:40;1.20;99.90
36654;DHT22;22650;49.350;20.898;2024-01-07T03:29:14;1.10;99.90
36654;DHT22;22650;49.350;20.898;2024-01-07T03:31:48;1.10;99.90
36654;DHT22;22650;49.350;20.898;2024-01-07T03:34:23;1.10;99.90
36654;DHT22;22650;49.350;20.898;2024-01-07T03:36:56;1.00;99.90
36654;DHT22;22650;49.350;20.898;2024-01-07T03:39:32;1.00;99.90
36654;DHT22;22650;49.350;20.898;2024-01-07T03:42:07;1.00;99.90
36654;DHT22;22650;49.350;20.898;2024-01-07T03:44:44;1.00;99.90
36654;DHT22;22650;49.350;20.898;2024-01-07T03:47:17;0.90;99.90
36654;DHT22;22650;49.350;20.898;2024-01-07T03:49:51;0.90;99.90
36654;DHT22;22650;49.350;20.898;2024-01-07T03:52:24;0.90;99.90
36654;DHT22;22650;49.350;20.898;2024-01-07T03:54:58;0.90;99.90
36654;DHT22;22650;49.350;20.898;2024-01-07T03:57:33;0.90;99.90
36654;DHT22;22650;49.350;20.898;2024-01-07T04:00:08;1.00;99.90
36654;DHT22;22650;49.350;20.898;2024-01-07T04:02:43;1.00;99.90
36654;DHT22;22650;49.350;20.898;2024-01-07T04:05:16;0.90;99.90
36654;DHT22;22650;49.350;20.898;2024-01-07T04:07:50;0.90;99.90
36654;DHT22;22650;49.350;20.898;2024-01-07T04:10:23;0.90;99.90
36654;DHT22;22650;49.350;20.898;2024-01-07T04:12:58;0.90;99.90
36654;DHT22;22650;49.350;20.898;2024-01-07T04:15:32;0.90;99.90
36654;DHT22;22650;49.350;20.898;2024-01-07T04:18:06;0.90;99.90
36654;DHT22;22650;49.350;20.898;2024-01-07T04:20:39;0.80;99.90
36654;DHT22;22650;49.350;20.898;2024-01-07T04:23:13;0.80;99.90
36654;DHT22;22650;49.350;20.898;2024-01-07T04:25:47;0.80;99.90
36654;DHT22;22650;49.350;20.898;2024-01-07T04:28:22;0.80;99.90
36654;DHT22;22650;49.350;20.898;2024-01-07T04:30:55;0.70;99.90
36654;DHT22;22650;49.350;20.898;2024-01-07T04:33:29;0.70;99.90
36654;DHT22;22650;49.350;20.898;2024-01-07T04:36:03;0.70;99.90
36654;DHT22;22650;49.350;20.898;2024-01-07T04:38:37;0.70;99.90
36654;DHT22;22650;49.350;20.898;2024-01-07T04:41:11;0.70;99.90
36654;DHT22;22650;49.350;20.898;2024-01-07T04:43:46;0.60;99.90
36654;DHT22;22650;49.350;20.898;2024-01-07T04:46:19;0.60;99.90
36654;DHT22;22650;49.350;20.898;2024-01-07T04:48:53;0.60;99.90
36654;DHT22;22650;49.350;20.898;2024-01-07T04:51:26;0.50;99.90
36654;DHT22;22650;49.350;20.898;2024-01-07T04:54:00;0.50;99.90
36654;DHT22;22650;49.350;20.898;2024-01-07T04:56:34;0.50;99.90
36654;DHT22;22650;49.350;20.898;2024-01-07T04:59:09;0.30;99.90
36654;DHT22;22650;49.350;20.898;2024-01-07T05:01:42;0.40;99.90
36654;DHT22;22650;49.350;20.898;2024-01-07T05:04:16;0.40;99.90
36654;DHT22;22650;49.350;20.898;2024-01-07T05:06:49;0.40;99.90
36654;DHT22;22650;49.350;20.898;2024-01-07T05:09:23;0.40;99.90
36654;DHT22;22650;49.350;20.898;2024-01-07T05:11:57;0.40;99.90
36654;DHT22;22650;49.350;20.898;2024-01-07T05:14:32;0.40;99.90
36654;DHT22;22650;49.350;20.898;2024-01-07T05:17:06;0.30;99.90
36654;DHT22;22650;49.350;20.898;2024-01-07T05:19:40;0.30;99.90
36654;DHT22;22650;49.350;20.898;2024-01-07T05:22:14;0.30;99.90
36654;DHT22;22650;49.350;20.898;2024-01-07T05:24:48;0.30;99.90
36654;DHT22;22650;49.350;20.898;2024-01-07T05:27:21;0.20;99.90
36654;DHT22;22650;49.350;20.898;2024-01-07T05:29:56;0.20;99.90
36654;DHT22;22650;49.350;20.898;2024-01-07T05:32:30;0.20;99.90
36654;DHT22;22650;49.350;20.898;2024-01-07T05:35:04;0.10;99.90
36654;DHT22;22650;49.350;20.898;2024-01-07T05:37:38;0.10;99.90
36654;DHT22;22650;49.350;20.898;2024-01-07T05:40:12;0.10;99.90
36654;DHT22;22650;49.350;20.898;2024-01-07T05:42:46;0.10;99.90
36654;DHT22;22650;49.350;20.898;2024-01-07T05:45:20;0.10;99.90
36654;DHT22;22650;49.350;20.898;2024-01-07T05:47:54;0.00;99.90
36654;DHT22;22650;49.350;20.898;2024-01-07T05:50:28;0.00;99.90
36654;DHT22;22650;49.350;20.898;2024-01-07T05:53:02;0.00;99.90
36654;DHT22;22650;49.350;20.898;2024-01-07T05:55:35;0.00;99.90
36654;DHT22;22650;49.350;20.898;2024-01-07T05:58:10;0.00;99.90
36654;DHT22;22650;49.350;20.898;2024-01-07T06:00:45;0.00;99.90
36654;DHT22;22650;49.350;20.898;2024-01-07T06:03:18;0.00;99.90
36654;DHT22;22650;49.350;20.898;2024-01-07T06:05:52;0.00;99.90
36654;DHT22;22650;49.350;20.898;2024-01-07T06:08:26;-0.10;99.90
36654;DHT22;22650;49.350;20.898;2024-01-07T06:10:59;-0.10;99.90
36654;DHT22;22650;49.350;20.898;2024-01-07T06:13:33;-0.10;99.90
36654;DHT22;22650;49.350;20.898;2024-01-07T06:16:08;-0.10;99.90
36654;DHT22;22650;49.350;20.898;2024-01-07T06:18:42;-0.10;99.90
36654;DHT22;22650;49.350;20.898;2024-01-07T06:21:15;-0.10;99.90
36654;DHT22;22650;49.350;20.898;2024-01-07T06:23:49;-0.20;99.90
36654;DHT22;22650;49.350;20.898;2024-01-07T06:26:23;-0.20;99.90
36654;DHT22;22650;49.350;20.898;2024-01-07T06:28:56;-0.30;99.90
36654;DHT22;22650;49.350;20.898;2024-01-07T06:31:31;-0.30;99.90
36654;DHT22;22650;49.350;20.898;2024-01-07T06:34:06;-0.30;99.90
36654;DHT22;22650;49.350;20.898;2024-01-07T06:36:40;-0.30;99.90
36654;DHT22;22650;49.350;20.898;2024-01-07T06:39:14;-0.30;99.90
36654;DHT22;22650;49.350;20.898;2024-01-07T06:41:48;-0.30;99.90
36654;DHT22;22650;49.350;20.898;2024-01-07T06:44:21;-0.30;99.90
36654;DHT22;22650;49.350;20.898;2024-01-07T06:46:56;-0.30;99.90
36654;DHT22;22650;49.350;20.898;2024-01-07T06:49:30;-0.30;99.90
36654;DHT22;22650;49.350;20.898;2024-01-07T06:52:04;-0.30;99.90
36654;DHT22;22650;49.350;20.898;2024-01-07T06:54:38;-0.30;99.90
36654;DHT22;22650;49.350;20.898;2024-01-07T06:57:12;-0.40;99.90
36654;DHT22;22650;49.350;20.898;2024-01-07T06:59:46;-0.40;99.90
36654;DHT22;22650;49.350;20.898;2024-01-07T07:02:21;-0.40;99.90
36654;DHT22;22650;49.350;20.898;2024-01-07T07:04:55;-0.50;99.90
36654;DHT22;22650;49.350;20.898;2024-01-07T07:07:28;-0.60;99.90
36654;DHT22;22650;49.350;20.898;2024-01-07T07:10:02;-0.60;99.90
36654;DHT22;22650;49.350;20.898;2024-01-07T07:12:36;-0.60;99.90
36654;DHT22;22650;49.350;20.898;2024-01-07T07:15:09;-0.60;99.90
36654;DHT22;22650;49.350;20.898;2024-01-07T07:17:44;-0.60;99.90
36654;DHT22;22650;49.350;20.898;2024-01-07T07:20:18;-0.70;99.90
36654;DHT22;22650;49.350;20.898;2024-01-07T07:22:52;-0.60;99.90
36654;DHT22;22650;49.350;20.898;2024-01-07T07:25:25;-0.70;99.90
36654;DHT22;22650;49.350;20.898;2024-01-07T07:27:59;-0.70;99.90
36654;DHT22;22650;49.350;20.898;2024-01-07T07:30:33;-0.70;99.90
36654;DHT22;22650;49.350;20.898;2024-01-07T07:33:08;-0.80;99.90
36654;DHT22;22650;49.350;20.898;2024-01-07T07:35:42;-0.90;99.90
36654;DHT22;22650;49.350;20.898;2024-01-07T07:38:16;-0.80;99.90
36654;DHT22;22650;49.350;20.898;2024-01-07T07:40:49;-0.90;99.90
36654;DHT22;22650;49.350;20.898;2024-01-07T07:43:25;-0.90;99.90
36654;DHT22;22650;49.350;20.898;2024-01-07T07:45:59;-0.90;99.90
36654;DHT22;22650;49.350;20.898;2024-01-07T07:48:36;-1.00;99.90
36654;DHT22;22650;49.350;20.898;2024-01-07T07:51:10;-0.90;99.90
36654;DHT22;22650;49.350;20.898;2024-01-07T07:53:44;-0.90;99.90
36654;DHT22;22650;49.350;20.898;2024-01-07T07:56:17;-1.00;99.90
36654;DHT22;22650;49.350;20.898;2024-01-07T07:58:51;-1.10;99.90
36654;DHT22;22650;49.350;20.898;2024-01-07T08:01:24;-1.20;99.90
36654;DHT22;22650;49.350;20.898;2024-01-07T08:03:59;-1.20;99.90
36654;DHT22;22650;49.350;20.898;2024-01-07T08:06:35;-1.20;99.90
36654;DHT22;22650;49.350;20.898;2024-01-07T08:09:09;-1.20;99.90
36654;DHT22;22650;49.350;20.898;2024-01-07T08:11:43;-1.10;99.90
36654;DHT22;22650;49.350;20.898;2024-01-07T08:14:16;-1.10;99.90
36654;DHT22;22650;49.350;20.898;2024-01-07T08:16:50;-1.20;99.90
36654;DHT22;22650;49.350;20.898;2024-01-07T08:19:25;-1.30;99.90
36654;DHT22;22650;49.350;20.898;2024-01-07T08:21:58;-1.40;99.90
36654;DHT22;22650;49.350;20.898;2024-01-07T08:24:32;-1.40;99.90
36654;DHT22;22650;49.350;20.898;2024-01-07T08:27:06;-1.40;99.90
36654;DHT22;22650;49.350;20.898;2024-01-07T08:29:42;-1.40;99.90
36654;DHT22;22650;49.350;20.898;2024-01-07T08:32:16;-1.40;99.90
36654;DHT22;22650;49.350;20.898;2024-01-07T08:34:51;-1.40;99.90
36654;DHT22;22650;49.350;20.898;2024-01-07T08:37:24;-1.40;99.90
36654;DHT22;22650;49.350;20.898;2024-01-07T08:39:58;-1.50;99.90
36654;DHT22;22650;49.350;20.898;2024-01-07T08:42:32;-1.50;99.90
36654;DHT22;22650;49.350;20.898;2024-01-07T08:45:07;-1.60;99.90
36654;DHT22;22650;49.350;20.898;2024-01-07T08:47:41;-1.50;99.90
36654;DHT22;22650;49.350;20.898;2024-01-07T08:50:18;-1.50;99.90
36654;DHT22;22650;49.350;20.898;2024-01-07T08:52:51;-1.40;99.90
36654;DHT22;22650;49.350;20.898;2024-01-07T08:55:25;-1.50;99.90
36654;DHT22;22650;49.350;20.898;2024-01-07T08:57:59;-1.50;99.90
36654;DHT22;22650;49.350;20.898;2024-01-07T09:00:33;-1.50;99.90
36654;DHT22;22650;49.350;20.898;2024-01-07T09:03:07;-1.50;99.90
36654;DHT22;22650;49.350;20.898;2024-01-07T09:05:42;-1.40;99.90
36654;DHT22;22650;49.350;20.898;2024-01-07T09:08:15;-1.40;99.90
36654;DHT22;22650;49.350;20.898;2024-01-07T09:10:49;-1.40;99.90
36654;DHT22;22650;49.350;20.898;2024-01-07T09:13:22;-1.50;99.90
36654;DHT22;22650;49.350;20.898;2024-01-07T09:15:56;-1.50;99.90
36654;DHT22;22650;49.350;20.898;2024-01-07T09:18:30;-1.60;99.90
36654;DHT22;22650;49.350;20.898;2024-01-07T09:21:05;-1.60;99.90
36654;DHT22;22650;49.350;20.898;2024-01-07T09:23:39;-1.50;99.90
36654;DHT22;22650;49.350;20.898;2024-01-07T09:26:13;-1.60;99.90
36654;DHT22;22650;49.350;20.898;2024-01-07T09:28:47;-1.60;99.90
36654;DHT22;22650;49.350;20.898;2024-01-07T09:31:21;-1.70;99.90
36654;DHT22;22650;49.350;20.898;2024-01-07T09:33:54;-1.70;99.90
36654;DHT22;22650;49.350;20.898;2024-01-07T09:36:29;-1.80;99.90
36654;DHT22;22650;49.350;20.898;2024-01-07T09:39:03;-1.70;99.90
36654;DHT22;22650;49.350;20.898;2024-01-07T09:41:38;-1.80;99.90
36654;DHT22;22650;49.350;20.898;2024-01-07T09:44:13;-1.80;99.90
36654;DHT22;22650;49.350;20.898;2024-01-07T09:46:48;-1.70;99.90
36654;DHT22;22650;49.350;20.898;2024-01-07T09:49:24;-1.80;99.90
36654;DHT22;22650;49.350;20.898;2024-01-07T09:52:00;-1.70;99.90
36654;DHT22;22650;49.350;20.898;2024-01-07T09:54:36;-1.80;99.90
36654;DHT22;22650;49.350;20.898;2024-01-07T09:57:10;-1.70;99.90
36654;DHT22;22650;49.350;20.898;2024-01-07T09:59:45;-1.70;99.90
36654;DHT22;22650;49.350;20.898;2024-01-07T10:02:20;-1.70;99.90
36654;DHT22;22650;49.350;20.898;2024-01-07T10:04:54;-1.70;99.90
36654;DHT22;22650;49.350;20.898;2024-01-07T10:07:31;-1.70;99.90
36654;DHT22;22650;49.350;20.898;2024-01-07T10:10:12;-1.70;99.90
36654;DHT22;22650;49.350;20.898;2024-01-07T10:12:47;-1.80;99.90
36654;DHT22;22650;49.350;20.898;2024-01-07T10:15:21;-1.80;99.90
36654;DHT22;22650;49.350;20.898;2024-01-07T10:17:55;-1.70;99.90
36654;DHT22;22650;49.350;20.898;2024-01-07T10:20:31;-1.70;99.90
36654;DHT22;22650;49.350;20.898;2024-01-07T10:23:07;-1.70;99.90
36654;DHT22;22650;49.350;20.898;2024-01-07T10:25:40;-1.70;99.90
36654;DHT22;22650;49.350;20.898;2024-01-07T10:28:14;-1.80;99.90
36654;DHT22;22650;49.350;20.898;2024-01-07T10:30:49;-1.80;99.90
36654;DHT22;22650;49.350;20.898;2024-01-07T10:33:23;-1.70;99.90
36654;DHT22;22650;49.350;20.898;2024-01-07T10:35:59;-1.70;99.90
36654;DHT22;22650;49.350;20.898;2024-01-07T10:38:39;-1.80;99.90
36654;DHT22;22650;49.350;20.898;2024-01-07T10:41:18;-1.80;99.90
36654;DHT22;22650;49.350;20.898;2024-01-07T10:43:52;-1.80;99.90
36654;DHT22;22650;49.350;20.898;2024-01-07T10:46:28;-1.70;99.90
36654;DHT22;22650;49.350;20.898;2024-01-07T10:49:07;-1.70;99.90
36654;DHT22;22650;49.350;20.898;2024-01-07T10:51:43;-1.70;99.90
36654;DHT22;22650;49.350;20.898;2024-01-07T10:54:19;-1.70;99.90
36654;DHT22;22650;49.350;20.898;2024-01-07T10:56:57;-1.80;99.90
36654;DHT22;22650;49.350;20.898;2024-01-07T10:59:32;-1.90;99.90
36654;DHT22;22650;49.350;20.898;2024-01-07T11:02:07;-1.90;99.90
36654;DHT22;22650;49.350;20.898;2024-01-07T11:04:45;-1.80;99.90
36654;DHT22;22650;49.350;20.898;2024-01-07T11:07:29;-1.80;99.90
36654;DHT22;22650;49.350;20.898;2024-01-07T11:10:14;-1.80;99.90
36654;DHT22;22650;49.350;20.898;2024-01-07T11:12:53;-1.80;99.90
36654;DHT22;22650;49.350;20.898;2024-01-07T11:15:52;-1.80;99.90
36654;DHT22;22650;49.350;20.898;2024-01-07T11:18:27;-1.80;99.90
36654;DHT22;22650;49.350;20.898;2024-01-07T11:21:06;-1.80;99.90
36654;DHT22;22650;49.350;20.898;2024-01-07T11:23:43;-1.90;99.90
36654;DHT22;22650;49.350;20.898;2024-01-07T11:26:20;-2.00;99.90
36654;DHT22;22650;49.350;20.898;2024-01-07T11:28:54;-2.00;99.90
36654;DHT22;22650;49.350;20.898;2024-01-07T11:31:43;-2.00;99.90
36654;DHT22;22650;49.350;20.898;2024-01-07T11:34:40;-2.00;99.90
36654;DHT22;22650;49.350;20.898;2024-01-07T11:37:16;-2.00;99.90
36654;DHT22;22650;49.350;20.898;2024-01-07T11:39:51;-2.00;99.90
36654;DHT22;22650;49.350;20.898;2024-01-07T11:42:27;-2.00;99.90
36654;DHT22;22650;49.350;20.898;2024-01-07T11:45:00;-2.00;99.90
36654;DHT22;22650;49.350;20.898;2024-01-07T11:47:35;-2.00;99.90
36654;DHT22;22650;49.350;20.898;2024-01-07T11:50:09;-1.90;99.90
36654;DHT22;22650;49.350;20.898;2024-01-07T11:52:42;-2.00;99.90
36654;DHT22;22650;49.350;20.898;2024-01-07T11:55:16;-2.00;99.90
36654;DHT22;22650;49.350;20.898;2024-01-07T11:57:51;-2.10;99.90
36654;DHT22;22650;49.350;20.898;2024-01-07T12:00:25;-2.00;99.90
36654;DHT22;22650;49.350;20.898;2024-01-07T12:02:59;-2.00;99.90
36654;DHT22;22650;49.350;20.898;2024-01-07T12:05:33;-2.00;99.90
36654;DHT22;22650;49.350;20.898;2024-01-07T12:08:06;-2.00;99.90
36654;DHT22;22650;49.350;20.898;2024-01-07T12:10:40;-1.90;99.90
36654;DHT22;22650;49.350;20.898;2024-01-07T12:13:15;-2.00;99.90
36654;DHT22;22650;49.350;20.898;2024-01-07T12:15:49;-2.00;99.90
36654;DHT22;22650;49.350;20.898;2024-01-07T12:18:23;-2.00;99.90
36654;DHT22;22650;49.350;20.898;2024-01-07T12:20:59;-1.90;99.90
36654;DHT22;22650;49.350;20.898;2024-01-07T12:23:34;-1.90;99.90
36654;DHT22;22650;49.350;20.898;2024-01-07T12:26:09;-2.00;99.90
36654;DHT22;22650;49.350;20.898;2024-01-07T12:28:44;-2.00;99.90
36654;DHT22;22650;49.350;20.898;2024-01-07T12:31:18;-2.00;99.90
36654;DHT22;22650;49.350;20.898;2024-01-07T12:33:52;-2.00;99.90
36654;DHT22;22650;49.350;20.898;2024-01-07T12:36:26;-2.10;99.90
36654;DHT22;22650;49.350;20.898;2024-01-07T12:39:03;-2.10;99.90
36654;DHT22;22650;49.350;20.898;2024-01-07T12:41:37;-2.00;99.90
36654;DHT22;22650;49.350;20.898;2024-01-07T12:44:12;-2.00;99.90
36654;DHT22;22650;49.350;20.898;2024-01-07T12:46:46;-2.00;99.90
36654;DHT22;22650;49.350;20.898;2024-01-07T12:49:20;-2.00;99.90
36654;DHT22;22650;49.350;20.898;2024-01-07T12:51:55;-1.90;99.90
36654;DHT22;22650;49.350;20.898;2024-01-07T12:54:28;-2.00;99.90
36654;DHT22;22650;49.350;20.898;2024-01-07T12:57:02;-2.00;99.90
36654;DHT22;22650;49.350;20.898;2024-01-07T12:59:37;-2.10;99.90
36654;DHT22;22650;49.350;20.898;2024-01-07T13:02:11;-2.10;99.90
36654;DHT22;22650;49.350;20.898;2024-01-07T13:04:44;-2.10;99.90
36654;DHT22;22650;49.350;20.898;2024-01-07T13:07:18;-2.20;99.90
36654;DHT22;22650;49.350;20.898;2024-01-07T13:09:52;-2.20;99.90
36654;DHT22;22650;49.350;20.898;2024-01-07T13:12:25;-2.20;99.90
36654;DHT22;22650;49.350;20.898;2024-01-07T13:15:16;-2.20;99.90
36654;DHT22;22650;49.350;20.898;2024-01-07T13:17:50;-2.20;99.90
36654;DHT22;22650;49.350;20.898;2024-01-07T13:20:23;-2.20;99.90
36654;DHT22;22650;49.350;20.898;2024-01-07T13:22:57;-2.20;99.90
36654;DHT22;22650;49.350;20.898;2024-01-07T13:25:32;-2.20;99.90
36654;DHT22;22650;49.350;20.898;2024-01-07T13:28:05;-2.20;99.90
36654;DHT22;22650;49.350;20.898;2024-01-07T13:30:45;-2.30;99.90
36654;DHT22;22650;49.350;20.898;2024-01-07T13:33:18;-2.30;99.90
36654;DHT22;22650;49.350;20.898;2024-01-07T13:35:52;-2.30;99.90
36654;DHT22;22650;49.350;20.898;2024-01-07T13:41:34;-2.40;99.90
36654;DHT22;22650;49.350;20.898;2024-01-07T13:44:07;-2.30;99.90
36654;DHT22;22650;49.350;20.898;2024-01-07T13:46:50;-2.30;99.90
36654;DHT22;22650;49.350;20.898;2024-01-07T13:49:25;-2.30;99.90
36654;DHT22;22650;49.350;20.898;2024-01-07T13:51:59;-2.40;99.90
36654;DHT22;22650;49.350;20.898;2024-01-07T13:54:33;-2.40;99.90
36654;DHT22;22650;49.350;20.898;2024-01-07T13:57:07;-2.40;99.90
36654;DHT22;22650;49.350;20.898;2024-01-07T13:59:41;-2.40;99.90
36654;DHT22;22650;49.350;20.898;2024-01-07T14:02:16;-2.50;99.90
36654;DHT22;22650;49.350;20.898;2024-01-07T14:04:52;-2.50;99.90
36654;DHT22;22650;49.350;20.898;2024-01-07T14:07:25;-2.60;99.90
36654;DHT22;22650;49.350;20.898;2024-01-07T14:09:59;-2.50;99.90
36654;DHT22;22650;49.350;20.898;2024-01-07T14:12:35;-2.50;99.90
36654;DHT22;22650;49.350;20.898;2024-01-07T14:15:09;-2.50;99.90
36654;DHT22;22650;49.350;20.898;2024-01-07T14:17:45;-2.60;99.90
36654;DHT22;22650;49.350;20.898;2024-01-07T14:20:19;-2.60;99.90
36654;DHT22;22650;49.350;20.898;2024-01-07T14:22:53;-2.60;99.90
36654;DHT22;22650;49.350;20.898;2024-01-07T14:25:27;-2.70;99.90
36654;DHT22;22650;49.350;20.898;2024-01-07T14:28:01;-2.80;99.90
36654;DHT22;22650;49.350;20.898;2024-01-07T14:30:36;-2.80;99.90
36654;DHT22;22650;49.350;20.898;2024-01-07T14:33:12;-2.70;99.90
36654;DHT22;22650;49.350;20.898;2024-01-07T14:35:46;-2.80;99.90
36654;DHT22;22650;49.350;20.898;2024-01-07T14:38:20;-2.80;99.90
36654;DHT22;22650;49.350;20.898;2024-01-07T14:40:53;-2.80;99.90
36654;DHT22;22650;49.350;20.898;2024-01-07T14:43:28;-2.90;99.90
36654;DHT22;22650;49.350;20.898;2024-01-07T14:46:03;-2.90;99.90
36654;DHT22;22650;49.350;20.898;2024-01-07T14:48:38;-2.80;99.90
36654;DHT22;22650;49.350;20.898;2024-01-07T14:51:11;-2.90;99.90
36654;DHT22;22650;49.350;20.898;2024-01-07T14:53:45;-2.90;99.90
36654;DHT22;22650;49.350;20.898;2024-01-07T14:56:19;-2.80;99.90
36654;DHT22;22650;49.350;20.898;2024-01-07T14:58:52;-2.80;99.90
36654;DHT22;22650;49.350;20.898;2024-01-07T15:01:26;-2.80;99.90
36654;DHT22;22650;49.350;20.898;2024-01-07T15:04:01;-2.80;99.90
36654;DHT22;22650;49.350;20.898;2024-01-07T15:06:40;-2.90;99.90
36654;DHT22;22650;49.350;20.898;2024-01-07T15:09:14;-2.80;99.90
36654;DHT22;22650;49.350;20.898;2024-01-07T15:11:49;-2.80;99.90
36654;DHT22;22650;49.350;20.898;2024-01-07T15:14:23;-2.90;99.90
36654;DHT22;22650;49.350;20.898;2024-01-07T15:16:58;-2.80;99.90
36654;DHT22;22650;49.350;20.898;2024-01-07T15:19:33;-2.80;99.90
36654;DHT22;22650;49.350;20.898;2024-01-07T15:22:07;-2.80;99.90
36654;DHT22;22650;49.350;20.898;2024-01-07T15:24:42;-2.90;99.90
36654;DHT22;22650;49.350;20.898;2024-01-07T15:27:16;-3.00;99.90
36654;DHT22;22650;49.350;20.898;2024-01-07T15:29:49;-3.00;99.90
36654;DHT22;22650;49.350;20.898;2024-01-07T15:32:23;-3.00;99.90
36654;DHT22;22650;49.350;20.898;2024-01-07T15:35:00;-3.10;99.90
36654;DHT22;22650;49.350;20.898;2024-01-07T15:37:36;-3.00;99.90
36654;DHT22;22650;49.350;20.898;2024-01-07T15:40:11;-3.10;99.90
36654;DHT22;22650;49.350;20.898;2024-01-07T15:42:46;-3.10;99.90
36654;DHT22;22650;49.350;20.898;2024-01-07T15:45:20;-3.20;99.90
36654;DHT22;22650;49.350;20.898;2024-01-07T15:47:54;-3.20;99.90
36654;DHT22;22650;49.350;20.898;2024-01-07T15:50:30;-3.30;99.90
36654;DHT22;22650;49.350;20.898;2024-01-07T15:53:03;-3.20;99.90
36654;DHT22;22650;49.350;20.898;2024-01-07T15:55:39;-3.30;99.90
36654;DHT22;22650;49.350;20.898;2024-01-07T15:58:14;-3.30;99.90
36654;DHT22;22650;49.350;20.898;2024-01-07T16:00:48;-3.40;99.90
36654;DHT22;22650;49.350;20.898;2024-01-07T16:03:22;-3.40;99.90
36654;DHT22;22650;49.350;20.898;2024-01-07T16:05:58;-3.40;99.90
36654;DHT22;22650;49.350;20.898;2024-01-07T16:08:32;-3.40;99.90
36654;DHT22;22650;49.350;20.898;2024-01-07T16:11:06;-3.50;99.90